Tiempo atmosférico en la estación meteorológica de Calatayud, Zaragoza (600 m.)



Fecha
DESCASC
Temp. máxima en grados centígrados (hora)
DESCASC
Temp. mínima en grados centígrados (hora)
DESCASC
Temp. media en grados centígrados
DESCASC
Racha de viento máxima en m/sg (hora)
DESCASC
Velocidad máxima media en intervalos de 10 minutos(hora)
DESCASC
Precipitaciones diarias en mm
DESCASC
Precipitaciones de 00:00 a 06:00 en mm
DESCASC
Precipitaciones de 06:00 a 12:00 en mm
DESCASC
Precipitaciones de 12:00 a 18:00 en mm
DESCASC
Precipitaciones de 18:00 a 24:00 en mm
DESCASC
16-06-2019 29.7 (19:30) 9.7 (07:00) 19.7 9.72 (00:30) 6.11 (00:20) 0 0 0 0 0
15-06-2019 27.1 (17:10) 12 (07:40) 19.6 10.28 (20:40) 6.67 (20:40) 0 0 0 0 0
14-06-2019 28.7 (18:50) 12.7 (11:00) 20.7 12.22 (17:30) 7.22 (17:30) 2.2 0 2.2 0 0
13-06-2019 28.9 (17:20) 9.7 (00:00) 19.3 9.72 (13:20) 6.39 (13:20) 0 0 0 0 0
12-06-2019 25 (18:30) 4.9 (00:00) 15 9.17 (20:10) 4.44 (20:10) 0 0 0 0 0
11-06-2019 17.7 (18:50) 10.2 (00:00) 14 11.67 (15:00) 5.83 (02:30) 2.6 0 0 2.6 0
10-06-2019 24.1 (16:20) 12.7 (00:00) 18.4 13.33 (20:40) 8.33 (18:50) 0 0 0 0 0
09-06-2019 29.8 (16:30) 14.4 (00:00) 22.1 12.22 (21:10) 7.5 (21:10) 0 0 0 0 0
08-06-2019 26.1 (17:30) 6.9 (00:00) 16.5 13.06 (15:40) 7.78 (15:10) 0 0 0 0 0
07-06-2019 22 (19:30) 9.2 (00:00) 15.6 12.5 (15:10) 7.5 (02:40) 1.2 0 1.2 0 0
06-06-2019 26.7 (19:40) 8 (00:00) 17.4 12.5 (15:20) 7.5 (23:59) 0 0 0 0 0
05-06-2019 19.7 (18:10) 11.4 (00:00) 15.6 16.94 (12:00) 8.61 (13:20) 7 1 5.2 0.8 0
04-06-2019 32.2 (18:40) 13.8 (00:00) 23 13.61 (12:50) 7.22 (13:00) 0 0 0 0 0
03-06-2019 34.1 (16:30) 16.9 (00:00) 25.5 13.06 (16:20) 7.22 (18:50) 0 0 0 0 0
02-06-2019 35.3 (18:00) 13.2 (00:00) 24.2 9.17 (18:30) 4.72 (23:50) 0 0 0 0 0
01-06-2019 32.6 (17:00) 10.9 (00:00) 21.7 8.33 (18:00) 5.28 (19:40) 0 0 0 0 0
31-05-2019 29.8 (17:30) 9.5 (00:00) 19.6 8.61 (17:00) 5.56 (20:00) 0 0 0 0 0
30-05-2019 27.9 (17:20) 8.2 (00:00) 18 11.11 (17:30) 6.67 (18:40) 0 0 0 0 0
29-05-2019 21.3 (17:10) 6.9 (00:00) 14.1 11.94 (18:00) 7.78 (18:00) 0 0 0 0 0
28-05-2019 21.1 (17:00) 8.7 (00:00) 14.9 13.33 (17:50) 8.06 (17:40) 0 0 0 0 0
27-05-2019 25.1 (15:20) 7.6 (00:00) 16.4 11.67 (17:00) 7.22 (17:10) 0 0 0 0 0
26-05-2019 22.3 (16:30) 7.8 (00:00) 15 11.94 (20:20) 8.06 (20:30) 0 0 0 0 0
25-05-2019 20.7 (17:10) 10.8 (00:00) 15.8 11.67 (19:50) 7.22 (15:10) 0 0 0 0 0
24-05-2019 17.2 (20:10) 11.4 (00:00) 14.3 10.56 (12:50) 6.39 (20:00) 2.4 0.2 2.2 0 0
23-05-2019 27.3 (15:50) 10.3 (00:00) 18.8 10.83 (18:10) 7.22 (18:10) 0.8 0 0 0 0.8
22-05-2019 26.1 (16:20) 7.3 (00:00) 16.7 10 (19:50) 6.67 (19:50) 0 0 0 0 0

Gráficas

Temp. máximas Temp. mínimas Temp. medias Precipitaciones Rachas de viento máximas Velocidades máximas media en intervalos de 10 minutos

Datos horarios

Fecha y hora oficial Temperatura (ºC) Velocidad del viento (km/h) Dirección del viento Racha (km/h) Dirección de racha Precipitación (mm) Presión (hPa) Tendencia (hPa) Humedad (%)
2019-06-20 23:00:00 19.1 17 Nordeste 33 Nordeste 0 946.4 2.3 61
2019-06-20 22:00:00 20.8 17 Nordeste 45 Nordeste 0 945.4 1.6 53
2019-06-20 21:00:00 23.5 23 Nordeste 47 Nordeste 0 944.7 0.6 43
2019-06-20 20:00:00 24.7 27 Nordeste 44 Nordeste 0 944.1 -0.6 39
2019-06-20 19:00:00 26.4 24 Nordeste 41 Este 0 943.8 -1.4 34
2019-06-20 18:00:00 26 24 Nordeste 40 Nordeste 0 944.1 -1.2 36
2019-06-20 17:00:00 26.7 21 Nordeste 36 Nordeste 0 944.7 -1.2 34
2019-06-20 16:00:00 27 19 Nordeste 35 Este 0 945.2 -1.2 33
2019-06-20 15:00:00 26.9 17 Nordeste 36 Este 0 945.3 -1.4 33
2019-06-20 14:00:00 26.3 18 Nordeste 35 Nordeste 0 945.9 -1.2 36
2019-06-20 13:00:00 25.5 13 Norte 24 Nordeste 0 946.4 -1.1 40
2019-06-20 12:00:00 24.6 11 Norte 24 Norte 0 946.7 -0.9 44
2019-06-20 11:00:00 23.2 6 Nordeste 13 Nordeste 0 947.1 -0.2 47
2019-06-20 10:00:00 21.2 3 Nordeste 12 Nordeste 0 947.5 0.5 54
2019-06-20 09:00:00 17.6 3 Sudoeste 6 Oeste 0 947.6 0.9 61
2019-06-20 08:00:00 16 2 Sur 5 Sur 0 947.3 0.7 62
2019-06-20 07:00:00 15.8 0 Calma 5 Sur 0 947 0.5 63
2019-06-20 06:00:00 16.1 3 Este 8 Sur 0 946.7 0.2 61
2019-06-20 05:00:00 17 2 Norte 6 Sur 0 946.6 0 58
2019-06-20 04:00:00 18 0 Calma 7 Nordeste 0 946.5 0 54
2019-06-20 03:00:00 19.1 0 Calma 12 Sudoeste 0 946.5 0.1 51
2019-06-20 02:00:00 20.2 6 Sudoeste 14 Sudoeste 0 946.6 0.8 47
2019-06-20 01:00:00 21.9 4 Sur 11 Oeste 0 946.5 1.7 43
2019-06-20 00:00:00 23.2 8 Oeste 23 Norte 0 946.4 1.9 39
2019-06-19 23:00:00 25 8 Oeste 20 Oeste 0 945.8 1.5 28
2019-06-19 22:00:00 26.7 14 Sudoeste 23 Sudoeste 0 944.8 0.5 25
2019-06-19 21:00:00 29.2 12 Oeste 26 Sudoeste 0 944.5 -0.4 22
2019-06-19 20:00:00 29.5 18 Oeste 33 Oeste 0 944.3 -0.9 22
2019-06-19 19:00:00 30 20 Oeste 32 Oeste 0 944.3 -1.3 21
2019-06-19 18:00:00 28.7 15 Oeste 31 Oeste 0 944.9 -1 23
2019-06-19 17:00:00 28.7 14 Oeste 38 Oeste 0 945.2 -1.2 23
2019-06-19 16:00:00 29 13 Oeste 32 Sudoeste 0 945.6 -0.9 24
2019-06-19 15:00:00 28.2 14 Oeste 34 Oeste 0 945.9 -0.5 26
2019-06-19 14:00:00 27.5 13 Oeste 33 Oeste 0 946.4 -0.4 28
2019-06-19 13:00:00 26.1 13 Oeste 35 Oeste 0 946.5 -0.8 32
2019-06-19 12:00:00 24.9 12 Oeste 27 Noroeste 0 946.4 -1.1 36
2019-06-19 11:00:00 23.9 14 Oeste 25 Oeste 0 946.8 -0.4 38
2019-06-19 10:00:00 21.7 6 Sudoeste 12 Oeste 0 947.3 0.4 39
2019-06-19 09:00:00 19.6 0 Calma 8 Sur 0 947.5 1 37
2019-06-19 08:00:00 16.9 2 Sur 7 Nordeste 0 947.2 0.8 41
2019-06-19 07:00:00 15.2 6 Nordeste 8 Nordeste 0 946.9 0.8 40
2019-06-19 06:00:00 16.3 2 Nordeste 8 Nordeste 0 946.5 0.2 35
2019-06-19 05:00:00 17.4 5 Nordeste 8 Nordeste 0 946.4 0.2 31
2019-06-19 04:00:00 18.7 3 Norte 7 Nordeste 0 946.1 0.1 30
2019-06-19 03:00:00 20.1 5 Sudoeste 9 Sudoeste 0 946.3 0.8 24
2019-06-19 02:00:00 20.7 6 Sudoeste 18 Sudoeste 0 946.2 1.4 21
2019-06-19 01:00:00 21.9 7 Sudoeste 18 Sur 0 946 2.4 21
2019-06-19 00:00:00 24.4 8 Sur 17 Sudoeste 0 945.5 2.2 14
2019-06-18 23:00:00 26.4 8 Sudoeste 23 Oeste 0 944.8 1.8 14
2019-06-18 22:00:00 28.6 14 Sudoeste 35 Oeste 0 943.6 0.6 14
2019-06-18 21:00:00 31 18 Oeste 34 Sudoeste 0 943.3 0.1 13
2019-06-18 20:00:00 32.4 15 Sudoeste 39 Sudoeste 0 943 -0.6 12
2019-06-18 19:00:00 33 18 Sudoeste 41 Oeste 0 943 -1 11
2019-06-18 18:00:00 33.4 18 Sudoeste 41 Sudoeste 0 943.2 -1.2 11
2019-06-18 17:00:00 33.3 -- -- -- -- 0 943.6 -1.4 12
2019-06-18 16:00:00 32.3 22 Sudoeste 43 Sudoeste 0 944 -1.5 13
2019-06-18 15:00:00 31.9 21 Sudoeste 51 Sudoeste 0 944.4 -1.7 14
2019-06-18 14:00:00 31.7 20 Sudoeste -- -- 0 945 -1.4 16
2019-06-18 13:00:00 31.1 18 Oeste 38 Oeste 0 945.5 -1.3 14
2019-06-18 12:00:00 28.9 9 Oeste 25 Sudoeste 0 946.1 -0.5 19
2019-06-18 11:00:00 27.7 6 Sudeste 12 Este 0 946.4 0.2 24
2019-06-18 10:00:00 24.9 5 Nordeste 9 Este 0 946.8 1 31
2019-06-18 09:00:00 19.6 4 Oeste 6 Oeste 0 946.6 0.5 45
2019-06-18 08:00:00 18.8 2 Sur 14 Oeste 0 946.2 0.1 47
2019-06-18 07:00:00 18 5 Este 13 Sudoeste 0 945.8 -0.6 45
2019-06-18 06:00:00 18.9 2 Este 7 Este 0 946.1 -0.7 42
2019-06-18 05:00:00 19.2 2 Este 9 Oeste 0 946.1 -0.4 37
2019-06-18 04:00:00 19.5 5 Nordeste 7 Este 0 946.4 0 39
2019-06-18 03:00:00 20.2 3 Sudeste 9 Nordeste 0 946.8 0.7 38
2019-06-18 02:00:00 21 3 Este 15 Sudeste 0 946.5 0.9 35
2019-06-18 01:00:00 21.9 7 Sudeste 15 Sudeste 0 946.4 1.2 34
2019-06-18 00:00:00 23.3 6 Sudoeste 13 Oeste 0 946.1 1.3 33
2019-06-17 23:00:00 26.3 6 Oeste 13 Oeste 0 945.6 1.2 26
2019-06-17 22:00:00 29.1 5 Sudeste 17 Este 0 945.2 0.8 20
2019-06-17 21:00:00 31.2 11 Este 24 Nordeste 0 944.8 -0.2 15
2019-06-17 20:00:00 31.7 18 Nordeste 30 Este 0 944.4 -1.2 15
2019-06-17 19:00:00 32.8 13 Nordeste 32 Oeste 0 944.4 -1.9 13
2019-06-17 18:00:00 33.3 9 Norte 21 Noroeste 0 945 -2 12
2019-06-17 17:00:00 33.3 7 Oeste 21 Norte 0 945.6 -2.4 12
2019-06-17 16:00:00 32.7 13 Noroeste 24 Nordeste 0 946.3 -2.5 13
2019-06-17 15:00:00 31.8 12 Nordeste 22 Nordeste 0 947 -2.5 14
2019-06-17 14:00:00 30.3 6 Noroeste 18 Oeste 0 948 -1.8 16
2019-06-17 13:00:00 29.1 4 Oeste 12 Oeste 0 948.8 -1.5 19
2019-06-17 12:00:00 25.7 8 Oeste 14 Oeste 0 949.5 -0.9 27
2019-06-17 11:00:00 23.1 4 Noroeste 8 Noroeste 0 949.8 -0.3 36
2019-06-17 10:00:00 19.3 4 Oeste 7 Oeste 0 950.3 0.5 47
2019-06-17 09:00:00 15.7 3 Oeste 5 Nordeste 0 950.4 0.9 55
2019-06-17 08:00:00 14.5 4 Nordeste 5 Nordeste 0 950.1 0.9 58
2019-06-17 07:00:00 13 3 Oeste 3 Oeste 0 949.8 0.6 63
2019-06-17 06:00:00 13.8 0 Calma 6 Nordeste 0 949.5 0.1 60
2019-06-17 05:00:00 14.7 4 Nordeste 6 Nordeste 0 949.2 -0.2 58
2019-06-17 04:00:00 15.9 0 Calma 6 Sur 0 949.2 -0.1 54
2019-06-17 03:00:00 17.1 0 Calma 6 Norte 0 949.4 0.2 49
2019-06-17 02:00:00 18.9 3 Sur 6 Sudoeste 0 949.4 0.5 44
2019-06-17 01:00:00 20.8 2 Oeste 12 Este 0 949.3 1 37
2019-06-17 00:00:00 22.5 4 Este 8 Sudeste 0 949.2 1.3 32
2019-06-16 23:00:00 23.9 4 Este 16 Este 0 948.9 1.1 28
2019-06-16 22:00:00 25.6 10 Nordeste 20 Este 0 948.3 0.4 24
2019-06-16 21:00:00 27.7 10 Este 24 Este 0 947.9 -0.2 23
2019-06-16 20:00:00 29 14 Este 28 Este 0 947.8 -0.9 20
2019-06-16 19:00:00 28.8 17 Este 24 Nordeste 0 947.9 -1.4 20
2019-06-16 18:00:00 29.1 7 Este 27 Nordeste 0 948.1 -1.8 20
2019-06-16 17:00:00 29 12 Nordeste 29 Nordeste 0 948.7 -2 21
2019-06-16 16:00:00 28.4 18 Nordeste -- -- 0 949.3 -2.2 20
2019-06-16 15:00:00 28.2 11 Norte 24 Norte 0 949.9 -2.3 19
2019-06-16 14:00:00 27.2 11 Nordeste 24 Nordeste 0 950.7 -2 18
2019-06-16 13:00:00 24.8 8 Norte 19 Nordeste 0 951.5 -1.5 28
2019-06-16 12:00:00 22.5 9 Norte 17 Norte 0 952.2 -0.8 32
2019-06-16 11:00:00 19.7 6 Norte 12 Norte 0 952.7 -0.2 38
2019-06-16 10:00:00 16.3 4 Norte 8 Nordeste 0 953 0.3 49
2019-06-16 09:00:00 13.1 3 Oeste 6 Oeste 0 953 0.6 61
2019-06-16 08:00:00 10.9 3 Noroeste 4 Oeste 0 952.9 0.3 66
2019-06-16 07:00:00 9.7 2 Noroeste 5 Oeste 0 952.7 0 73
2019-06-16 06:00:00 10.7 0 Calma 6 Nordeste 0 952.4 -0.6 68
2019-06-16 05:00:00 11.4 4 Este 9 Sur 0 952.6 -0.5 65
2019-06-16 04:00:00 13 4 Sur 8 Sur 0 952.7 -0.3 60
2019-06-16 03:00:00 14.6 4 Sur 8 Sudeste 0 953 0.6 52
2019-06-16 02:00:00 16.4 2 Norte 24 Este 0 953.1 1.5 44
2019-06-16 01:00:00 17.1 18 Este 35 Nordeste 0 953 2.2 44
2019-06-16 00:00:00 17.7 19 Nordeste 34 Nordeste 0 952.4 2.4 42
2019-06-15 23:00:00 18.8 20 Nordeste 36 Nordeste 0 951.6 2 40
2019-06-15 22:00:00 20.3 19 Nordeste 36 Nordeste 0 950.8 1.5 35
2019-06-15 21:00:00 22.7 22 Nordeste 37 Nordeste 0 950 0.6 29
2019-06-15 20:00:00 24.4 20 Nordeste 36 Nordeste 0 949.6 0 27
2019-06-15 19:00:00 26 15 Norte 26 Nordeste 0 949.3 -0.6 24
2019-06-15 18:00:00 26.8 14 Oeste 32 Oeste 0 949.4 -0.8 15
2019-06-15 17:00:00 26.7 10 Sudoeste 24 Oeste 0 949.6 -1 17
2019-06-15 16:00:00 25.2 12 Oeste 27 Oeste 0 949.9 -0.9 20
2019-06-15 15:00:00 24.8 8 Sudoeste 22 Sudoeste 0 950.2 -0.9 22
2019-06-15 14:00:00 23.2 14 Oeste 28 Oeste 0 950.6 -0.5 24
2019-06-15 13:00:00 22.2 14 Sudoeste 26 Oeste 0 950.8 -0.4 27
2019-06-15 12:00:00 20.5 14 Oeste 23 Oeste 0 951.1 0.2 30
2019-06-15 11:00:00 18.7 8 Oeste 25 Sudoeste 0 951.1 0.7 39
2019-06-15 10:00:00 16.8 10 Oeste 24 Oeste 0 951.2 1.3 43
2019-06-15 09:00:00 15.4 14 Oeste 24 Oeste 0 950.9 1.6 46
2019-06-15 08:00:00 13.1 9 Sudoeste 15 Sudoeste 0 950.4 1.5 48
2019-06-15 07:00:00 12.7 7 Sur 14 Oeste 0 949.9 1.6 47
2019-06-15 06:00:00 14.1 10 Oeste 15 Oeste 0 949.3 1.4 41
2019-06-15 05:00:00 14.4 3 Noroeste 15 Sudoeste 0 948.9 1.4 39
2019-06-15 04:00:00 15.4 2 Sudoeste 16 Sudoeste 0 948.3 1.5 36
2019-06-15 03:00:00 16.6 7 Sudoeste 17 Sudoeste 0 947.9 1.5 32
2019-06-15 02:00:00 18.2 6 Sudoeste 35 Sudoeste 0 947.5 2.2 27
2019-06-15 01:00:00 19.1 18 Sudoeste 33 Oeste 0 946.8 2.6 25
2019-06-15 00:00:00 20.2 13 Sudoeste 24 Sudoeste 0 946.4 3.1 23
2019-06-14 23:00:00 21.5 11 Sudoeste 28 Sudoeste 0 945.3 2.9 18
2019-06-14 22:00:00 23.2 17 Sudoeste 35 Sudoeste 0 944.2 2.1 16
2019-06-14 21:00:00 26 19 Oeste 38 Oeste 0 943.3 1.1 15
2019-06-14 20:00:00 27.5 21 Oeste 40 Oeste 0 942.4 0.4 15
2019-06-14 19:00:00 28.1 22 Sudoeste 43 Oeste 0 942.1 -0.1 15
2019-06-14 18:00:00 28.4 21 Oeste 44 Sudoeste 0 942.2 -0.4 14
2019-06-14 17:00:00 28.1 23 Sudoeste 41 Sudoeste 0 942 -1.2 15
2019-06-14 16:00:00 28.1 15 Sudoeste 32 Oeste 0 942.2 -1.6 19
2019-06-14 15:00:00 26.6 6 Sudoeste 13 Sudoeste 0 942.6 -1.9 32
2019-06-14 14:00:00 22.9 6 Nordeste 14 Este 0 943.2 -1.6 53
2019-06-14 13:00:00 18.9 5 Este 10 Nordeste 0 943.8 -0.6 62
2019-06-14 12:00:00 15.5 4 Norte 8 Noroeste 0 944.5 0.6 62
2019-06-14 11:00:00 12.8 4 Sudeste 9 Sudoeste 2.2 944.8 1.4 79
2019-06-14 10:00:00 15.6 4 Oeste 7 Oeste 0 944.4 1.1 60
2019-06-14 09:00:00 14.6 2 Noroeste 7 Sur 0 943.9 0.8 59
2019-06-14 08:00:00 14.2 3 Sudeste 6 Sudoeste 0 943.4 0.5 53
2019-06-14 07:00:00 14 2 Sur 15 Nordeste 0 943.3 0.4 45
2019-06-14 06:00:00 14.8 4 Este 18 Nordeste 0 943.1 0.2 41
2019-06-14 05:00:00 15.5 8 Este 18 Nordeste 0 942.9 0 41
2019-06-14 04:00:00 16.3 15 Este 25 Este 0 942.9 -0.4 43
2019-06-14 03:00:00 17.4 6 Norte 23 Nordeste 0 942.9 0.2 52
2019-06-14 02:00:00 17.9 14 Nordeste 23 Nordeste 0 942.9 0.8 52
2019-06-14 01:00:00 19 14 Nordeste 20 Nordeste 0 943.3 1.9 54
2019-06-14 00:00:00 20.4 9 Nordeste 24 Nordeste 0 942.7 2.1 52
2019-06-13 23:00:00 21.6 17 Nordeste 26 Nordeste 0 942.1 1.9 48
2019-06-13 22:00:00 22.8 12 Nordeste 21 Nordeste 0 941.4 1.2 44
2019-06-13 21:00:00 24.3 7 Sudeste 26 Sudeste 0 940.6 0 39
2019-06-13 20:00:00 27.4 9 Sudeste 25 Sudeste 0 940.2 -0.8 27
2019-06-13 19:00:00 28.5 8 Sur 22 Sur 0 940.2 -1.5 23
2019-06-13 18:00:00 28.1 8 Sudoeste 23 Oeste 0 940.6 -1.6 21
2019-06-13 17:00:00 28.1 7 Noroeste 21 Norte 0 941 -2 27
2019-06-13 16:00:00 27 11 Norte 27 Norte 0 941.7 -1.6 30
2019-06-13 15:00:00 24.5 19 Nordeste 33 Nordeste 0 942.2 -1.6 37
2019-06-13 14:00:00 22.9 17 Norte 35 Nordeste 0 943 -1.3 40
2019-06-13 13:00:00 21.6 22 Nordeste 31 Nordeste 0 943.3 -1.3 42
2019-06-13 12:00:00 21.7 12 Norte 21 Norte 0 943.8 -0.7 41
2019-06-13 11:00:00 19.3 6 Norte 13 Nordeste 0 944.3 0 50
2019-06-13 10:00:00 16.6 2 Noroeste 6 Oeste 0 944.6 0.6 58
2019-06-13 09:00:00 14.3 0 Calma 7 Sudoeste 0 944.5 0.8 61
2019-06-13 08:00:00 11.5 2 Sudoeste 8 Oeste 0 944.3 0.6 65
2019-06-13 07:00:00 9.8 5 Oeste 10 Oeste 0 944 0.4 70
2019-06-13 06:00:00 10.9 4 Oeste 11 Oeste 0 943.7 0 65
2019-06-13 05:00:00 11.2 7 Oeste 13 Sudeste 0 943.7 -0.3 64
2019-06-13 04:00:00 12.1 4 Sur 11 Sudeste 0 943.6 -0.2 61
2019-06-13 03:00:00 13.8 5 Sudeste 9 Este 0 943.7 -0.2 55
2019-06-13 02:00:00 14.6 6 Este 20 Este 0 944 0 53
2019-06-13 01:00:00 15.8 9 Este 19 Sudeste 0 943.8 0.5 50
2019-06-13 00:00:00 16.8 4 Este 10 Nordeste 0 943.9 0.8 38
2019-06-12 23:00:00 17.9 2 Noroeste 21 Este 0 944 1.3 30
2019-06-12 22:00:00 18.9 10 Este 28 Este 0 943.3 0.5 28
2019-06-12 21:00:00 20.6 12 Este 33 Este 0 943.1 -0.3 26
2019-06-12 20:00:00 23.8 12 Este 28 Este 0 942.7 -1.2 23
2019-06-12 19:00:00 24.1 8 Este 24 Este 0 942.8 -1.8 18
2019-06-12 18:00:00 24.2 8 Este 19 Oeste 0 943.4 -2 18
2019-06-12 17:00:00 23.7 5 Norte 18 Sur 0 943.9 -2.2 20
2019-06-12 16:00:00 22.9 9 Este 19 Nordeste 0 944.6 -2.1 23
2019-06-12 15:00:00 21.5 5 Noroeste 22 Noroeste 0 945.4 -2 24
2019-06-12 14:00:00 20.1 9 Noroeste 24 Oeste 0 946.1 -1.5 29
2019-06-12 13:00:00 18.6 4 Sudeste 16 Oeste 0 946.7 -1.5 36
2019-06-12 12:00:00 16.4 6 Oeste 13 Noroeste 0 947.4 -0.7 43
2019-06-12 11:00:00 14 4 Nordeste 11 Sur 0 947.6 -0.2 53
2019-06-12 10:00:00 10.7 3 Sudoeste 9 Sudoeste 0 948.2 0.9 63
2019-06-12 09:00:00 7.8 4 Sudoeste 6 Sur 0 948.1 0.8 77
2019-06-12 08:00:00 5.6 3 Sur 5 Sudoeste 0 947.8 0.3 83
2019-06-12 07:00:00 5.2 4 Nordeste 8 Norte 0 947.3 -0.2 85
2019-06-12 06:00:00 5.2 0 Calma 10 Sur 0 947.3 -0.2 83
2019-06-12 05:00:00 5.7 3 Sudoeste 8 Sur 0 947.5 -0.4 81
2019-06-12 04:00:00 6.7 3 Sur 10 Sudeste 0 947.5 -0.5 79
2019-06-12 03:00:00 7.8 4 Sudeste 12 Sudeste 0 947.5 -0.5 74
2019-06-12 02:00:00 8.9 5 Sudeste 9 Sur 0 947.9 -0.1 69
2019-06-12 01:00:00 10.5 5 Nordeste 17 Nordeste 0 948 0.7 63
2019-06-12 00:00:00 11.4 11 Nordeste 21 Nordeste 0 948 1.4 59
2019-06-11 23:00:00 12.1 9 Nordeste 22 Nordeste 0 948 1.5 56
2019-06-11 22:00:00 13.5 16 Nordeste 33 Nordeste 0 947.3 1.1 51
2019-06-11 21:00:00 15.5 9 Este 24 Nordeste 0 946.6 0.2 40
2019-06-11 20:00:00 16.6 0 Calma 13 Oeste 0 946.5 -0.2 40
2019-06-11 19:00:00 17.5 7 Sur 16 Sudoeste 0 946.2 -1.2 41
2019-06-11 18:00:00 15.9 9 Sudoeste 17 Sur 0 946.4 -0.6 47
2019-06-11 17:00:00 14.8 13 Sur 20 Sur 0 946.7 0 58
2019-06-11 16:00:00 11.7 5 Sur 31 Norte 2.4 947.4 0.3 78
2019-06-11 15:00:00 13.3 21 Norte 42 Nordeste 0.2 947 -0.1 64
2019-06-11 14:00:00 14.7 6 Nordeste 12 Nordeste 0 946.7 0 54
2019-06-11 13:00:00 11.9 5 Noroeste 13 Nordeste 0 947.1 0.8 67
2019-06-11 12:00:00 10.7 9 Nordeste 20 Este 0 947.1 1.2 73
2019-06-11 11:00:00 10.5 13 Nordeste 22 Nordeste 0 946.7 1.2 70
2019-06-11 10:00:00 10.5 13 Nordeste 23 Nordeste 0 946.3 1 68
2019-06-11 09:00:00 10.9 16 Nordeste 29 Nordeste 0 945.9 0.7 63
2019-06-11 08:00:00 10.9 14 Nordeste 24 Este 0 945.5 0.2 63
2019-06-11 07:00:00 11.1 15 Nordeste 26 Nordeste 0 945.3 -0.3 60
2019-06-11 06:00:00 11.3 16 Nordeste 30 Nordeste 0 945.2 -1.1 55
2019-06-11 05:00:00 11.6 16 Nordeste 40 Nordeste 0 945.3 -1.4 52
2019-06-11 04:00:00 12 17 Este 30 Nordeste 0 945.6 -1.8 53
2019-06-11 03:00:00 12.4 15 Nordeste 33 Nordeste 0 946.3 -1.2 55
2019-06-11 02:00:00 13 8 Nordeste 17 Nordeste 0 946.7 -0.6 52
2019-06-11 01:00:00 13.3 5 Sudeste 25 Nordeste 0 947.4 1.1 52
2019-06-11 00:00:00 13.4 13 Este 23 Nordeste 0 947.5 1.7 51
2019-06-10 23:00:00 13.8 16 Nordeste 37 Nordeste 0 947.3 2.1 51
2019-06-10 22:00:00 15.3 25 Nordeste 43 Nordeste 0 946.3 1 46
2019-06-10 21:00:00 17.8 28 Nordeste 48 Nordeste 0 945.8 0.4 40
2019-06-10 20:00:00 19.3 23 Nordeste 41 Nordeste 0 945.2 -0.5 36
2019-06-10 19:00:00 20.9 27 Nordeste 42 Nordeste 0 945.3 -0.8 33
2019-06-10 18:00:00 21.7 26 Nordeste 44 Nordeste 0 945.4 -1.4 33
2019-06-10 17:00:00 22.6 21 Nordeste 41 Nordeste 0 945.7 -1.5 32
2019-06-10 16:00:00 23.9 12 Nordeste 26 Nordeste 0 946.1 -1.9 29
2019-06-10 15:00:00 22.6 15 Nordeste 34 Nordeste 0 946.8 -1.8 34
2019-06-10 14:00:00 22.8 13 Nordeste 23 Nordeste 0 947.2 -1.7 35
2019-06-10 13:00:00 21.5 5 Este 15 Nordeste 0 948 -1.2 40
2019-06-10 12:00:00 18.7 5 Norte 13 Norte 0 948.6 -0.8 48
2019-06-10 11:00:00 17.1 4 Sudoeste 10 Norte 0 948.9 0 55
2019-06-10 10:00:00 15.6 4 Sur 14 Sudoeste 0 949.2 0.2 61
2019-06-10 09:00:00 13.6 10 Oeste 15 Oeste 0 949.4 0.8 68
2019-06-10 08:00:00 13.3 8 Sudoeste 13 Sudoeste 0 948.9 -0.1 70
2019-06-10 07:00:00 13.7 5 Nordeste 11 Nordeste 0 949 -0.2 68
2019-06-10 06:00:00 13.6 5 Este 10 Este 0 948.6 -0.8 68
2019-06-10 05:00:00 13 4 Nordeste 10 Nordeste 0 949 -0.3 72
2019-06-10 04:00:00 13.1 4 Este 17 Nordeste 0 949.2 0.3 71
2019-06-10 03:00:00 13.9 6 Este 14 Nordeste 0 949.4 1.1 70
2019-06-10 02:00:00 14.5 9 Nordeste 23 Este 0 949.3 1.9 68
2019-06-10 01:00:00 15.1 12 Nordeste 30 Nordeste 0 948.9 3 66
2019-06-10 00:00:00 15.9 17 Nordeste 35 Este 0 948.3 3.2 65
2019-06-09 23:00:00 17.7 18 Nordeste 36 Nordeste 0 947.4 2.7 58
2019-06-09 22:00:00 19.7 27 Nordeste 44 Nordeste 0 945.9 1.4 53
2019-06-09 21:00:00 25.7 20 Nordeste 32 Nordeste 0 945.1 0.5 32
2019-06-09 20:00:00 28.4 15 Oeste 28 Oeste 0 944.7 -0.2 14
2019-06-09 19:00:00 29 17 Oeste 37 Oeste 0 944.5 -1.1 14
2019-06-09 18:00:00 29.4 15 Oeste 41 Oeste 0 944.6 -1.5 13
2019-06-09 17:00:00 28.7 18 Noroeste 39 Oeste 0 944.9 -1.8 13
2019-06-09 16:00:00 28.4 18 Oeste 36 Oeste 0 945.6 -1.8 15
2019-06-09 15:00:00 27.7 19 Oeste 33 Oeste 0 946.1 -2 19
2019-06-09 14:00:00 27.1 9 Sudoeste 29 Oeste 0 946.7 -1.8 19
2019-06-09 13:00:00 26.3 5 Noroeste 18 Oeste 0 947.4 -1.4 26
2019-06-09 12:00:00 24.1 6 Oeste 16 Sudoeste 0 948.1 -0.8 32
2019-06-09 11:00:00 21.7 5 Noroeste 11 Norte 0 948.5 -0.4 37
2019-06-09 10:00:00 19.3 6 Noroeste 10 Oeste 0 948.8 -0.1 42
2019-06-09 09:00:00 16.9 2 Oeste 5 Oeste 0 948.9 0.1 50
2019-06-09 08:00:00 15.1 0 Calma 6 Oeste 0 948.9 0.1 56
2019-06-09 07:00:00 14.6 2 Oeste 8 Norte 0 948.9 -0.2 58
2019-06-09 06:00:00 15.6 0 Calma 8 Norte 0 948.8 -1 55
2019-06-09 05:00:00 16.2 4 Noroeste 8 Norte 0 948.8 -1.3 56
2019-06-09 04:00:00 17.3 4 Noroeste 6 Oeste 0 949.1 -0.8 50
2019-06-09 03:00:00 18 3 Oeste 12 Este 0 949.8 -0.1 48
2019-06-09 02:00:00 18.6 6 Este 19 Este 0 950.1 0.7 43
2019-06-09 01:00:00 19.2 12 Este 20 Nordeste 0 949.9 1.2 40
2019-06-09 00:00:00 19.7 10 Nordeste 26 Este 0 949.9 1.3 40
2019-06-08 23:00:00 20.8 10 Este 25 Nordeste 0 949.4 0.7 38
2019-06-08 22:00:00 21.5 19 Nordeste 28 Nordeste 0 948.7 0.1 34
2019-06-08 21:00:00 23.4 11 Nordeste 30 Nordeste 0 948.6 -0.6 32
2019-06-08 20:00:00 24.9 16 Nordeste 39 Nordeste 0 948.7 -1.1 29
2019-06-08 19:00:00 25.6 26 Nordeste 38 Nordeste 0 948.6 -2.1 27
2019-06-08 18:00:00 25.6 18 Nordeste 40 Nordeste 0 949.2 -2.3 28
2019-06-08 17:00:00 25.2 22 Nordeste 42 Nordeste 0 949.8 -2.4 29
2019-06-08 16:00:00 24.5 19 Nordeste 47 Nordeste 0 950.7 -2.3 28
2019-06-08 15:00:00 22.9 26 Norte 41 Norte 0 951.5 -2.3 32
2019-06-08 14:00:00 21.8 23 Nordeste 38 Nordeste 0 952.2 -2.2 33
2019-06-08 13:00:00 20.8 19 Norte 32 Norte 0 953 -2.1 33
2019-06-08 12:00:00 19.1 16 Norte 26 Nordeste 0 953.8 -1.2 36
2019-06-08 11:00:00 17.1 17 Nordeste 24 Nordeste 0 954.4 -0.6 38
2019-06-08 10:00:00 14 4 Norte 9 Norte 0 955.1 0.6 51
2019-06-08 09:00:00 10.6 3 Noroeste 5 Norte 0 955 0.5 63
2019-06-08 08:00:00 8.5 2 Oeste 4 Sudoeste 0 955 0.7 67
2019-06-08 07:00:00 7.2 2 Noroeste 9 Sudoeste 0 954.5 0.3 71
2019-06-08 06:00:00 7.3 6 Sudoeste 15 Sudoeste 0 954.5 0.3 69
2019-06-08 05:00:00 7.6 6 Sudoeste 16 Sur 0 954.3 0.4 67
2019-06-08 04:00:00 7.9 5 Sudoeste 16 Sur 0 954.2 0.7 65
2019-06-08 03:00:00 9.1 5 Sudoeste 9 Sudoeste 0 954.2 1.2 60
2019-06-08 02:00:00 11.4 0 Calma 8 Sudoeste 0 953.9 1.4 53
2019-06-08 01:00:00 13.3 3 Norte 14 Este 0 953.5 2.3 42
2019-06-08 00:00:00 13.6 5 Sudoeste 12 Oeste 0 953 2.4 43
2019-06-07 23:00:00 16.5 4 Sur 13 Noroeste 0 952.5 2.4 29
2019-06-07 22:00:00 18.4 9 Noroeste 22 Noroeste 0 951.2 1.5 25
2019-06-07 21:00:00 21 12 Noroeste 24 Noroeste 0 950.6 1.2 22
2019-06-07 20:00:00 21.4 17 Noroeste 27 Oeste 0 950.1 0.8 21
2019-06-07 19:00:00 21.7 18 Noroeste -- -- 0 949.7 0.6 22
2019-06-07 18:00:00 20.2 17 Oeste 37 Oeste 0 949.4 0.6 24
2019-06-07 17:00:00 20.5 12 Oeste 41 Noroeste 0 949.3 0.4 23
2019-06-07 16:00:00 20.4 23 Oeste 45 Oeste 0 949.1 0.6 24
2019-06-07 15:00:00 19.7 19 Oeste 44 Oeste 0 948.8 0.7 24
2019-06-07 14:00:00 17.9 24 Oeste -- -- 0 948.9 1.6 31
2019-06-07 13:00:00 16.8 22 Oeste 42 Oeste 0 948.5 1.7 35
2019-06-07 12:00:00 15.7 19 Oeste 35 Oeste 0 948.1 2 42
2019-06-07 11:00:00 14.5 21 Oeste 36 Oeste 0 947.3 2.3 46
2019-06-07 10:00:00 12.4 17 Oeste 30 Sudoeste 0 946.8 2.4 60
2019-06-07 09:00:00 10.6 8 Sur 17 Sur 0 946.1 3 75
2019-06-07 08:00:00 9.4 12 Sur 26 Oeste 0.8 945 3.5 83
2019-06-07 07:00:00 10 16 Oeste 37 Oeste 0.4 944.4 3.8 77
2019-06-07 06:00:00 12.5 13 Oeste 39 Oeste 0 943.1 3.1 67
2019-06-07 05:00:00 16.2 19 Oeste 34 Sudoeste 0 941.5 1.5 48
2019-06-07 04:00:00 14.8 9 Sudoeste 26 Sur 0 940.6 0.4 58
2019-06-07 03:00:00 16.5 19 Sur 38 Sur 0 940 0.3 53
2019-06-07 02:00:00 17.7 22 Sur 31 Sur 0 940 0.7 49
2019-06-07 01:00:00 18.9 19 Sur 41 Sur 0 940.2 1.5 47
2019-06-07 00:00:00 19.5 27 Sur 40 Sur 0 939.7 0.7 44
2019-06-06 23:00:00 21.3 14 Sur 24 Sudoeste 0 939.3 0.3 25
2019-06-06 22:00:00 23 15 Sudoeste 32 Sudoeste 0 938.7 -0.9 21
2019-06-06 21:00:00 25.1 14 Sudoeste 36 Sudoeste 0 939 -1.7 19
2019-06-06 20:00:00 26.1 18 Sudoeste 44 Sur 0 939 -2.4 17
2019-06-06 19:00:00 26 19 Sudoeste 36 Sudoeste 0 939.6 -2.6 17
2019-06-06 18:00:00 25 14 Sudoeste 40 Sur 0 940.7 -2 17
2019-06-06 17:00:00 25.7 21 Sudoeste 37 Sudoeste 0 941.4 -2.1 17
2019-06-06 16:00:00 24.5 18 Sudoeste 45 Sur 0 942.2 -1.9 19
2019-06-06 15:00:00 24.3 17 Sur 36 Sudoeste 0 942.7 -2.6 18
2019-06-06 14:00:00 23.3 19 Sudoeste 35 Sudoeste 0 943.5 -2.4 21
2019-06-06 13:00:00 21.8 5 Sudoeste 14 Sur 0 944.1 -2.4 27
2019-06-06 12:00:00 18.2 4 Nordeste 15 Noroeste 0 945.3 -1.4 41
2019-06-06 11:00:00 15.8 4 Sudeste 11 Nordeste 0 945.9 -0.8 53
2019-06-06 10:00:00 13.4 4 Norte 9 Nordeste 0 946.5 -0.3 64
2019-06-06 09:00:00 10.8 2 Noroeste 5 Oeste 0 946.7 0 73
2019-06-06 08:00:00 9.7 4 Este 8 Nordeste 0 946.7 0.1 77
2019-06-06 07:00:00 8.1 2 Sur 5 Sur 0 946.8 0 81
2019-06-06 06:00:00 9 2 Sudoeste 7 Sudeste 0 946.7 -0.1 79
2019-06-06 05:00:00 9.7 3 Sudeste 10 Sur 0 946.6 -0.2 77
2019-06-06 04:00:00 10 2 Sur 8 Sudeste 0 946.8 0 75
2019-06-06 03:00:00 10.6 2 Oeste 15 Este 0 946.8 0.3 73
2019-06-06 02:00:00 11.6 8 Nordeste 18 Este 0 946.8 0.6 67
2019-06-06 01:00:00 12.2 8 Este 19 Nordeste 0 946.8 1.4 66
2019-06-06 00:00:00 12.8 14 Nordeste 22 Nordeste 0 946.5 1.5 64
2019-06-05 23:00:00 13.6 17 Nordeste 28 Este 0 946.2 1.6 59
2019-06-05 22:00:00 14.2 18 Nordeste 28 Nordeste 0 945.4 0.9 57
2019-06-05 21:00:00 15.9 17 Nordeste 33 Nordeste 0 945 0.9 55
2019-06-05 20:00:00 17.2 19 Nordeste 33 Nordeste 0 944.6 0.5 47
2019-06-05 19:00:00 17.3 17 Nordeste 29 Nordeste 0 944.5 0 50
2019-06-05 18:00:00 19.5 14 Norte 30 Noroeste 0 944.1 -0.9 35
2019-06-05 17:00:00 19.1 20 Oeste 34 Oeste 0 944.1 -1.1 35
2019-06-05 16:00:00 18 17 Noroeste 33 Oeste 0 944.5 0.6 43
2019-06-05 15:00:00 15.6 16 Noroeste 27 Norte 0 945 2.5 48
2019-06-05 14:00:00 13.9 21 Noroeste -- -- 0 945.2 4.1 56
2019-06-05 13:00:00 15 22 Oeste 51 Oeste 0.8 943.9 2.9 59
2019-06-05 12:00:00 13.6 29 Oeste 61 Oeste 0.8 942.5 2 69
2019-06-05 11:00:00 14.7 16 Oeste 29 Oeste 0 941.1 1.6 69
2019-06-05 10:00:00 13.7 10 Oeste 27 Oeste 0 941 1.8 79
2019-06-05 09:00:00 12.6 14 Sudoeste -- -- 2.2 940.5 1.5 86
2019-06-05 08:00:00 13 11 Sur 17 Sudeste 1.8 939.5 -0.3 86
2019-06-05 07:00:00 13.6 3 Sudoeste 19 Nordeste 0.4 939.2 -0.1 86
2019-06-05 06:00:00 14.1 8 Sudeste 18 Nordeste 1 939 -1.2 82
2019-06-05 05:00:00 15.6 5 Oeste 13 Nordeste 0 939.8 -0.4 71
2019-06-05 04:00:00 16.3 8 Nordeste 17 Nordeste 0 939.3 -1 64
2019-06-05 03:00:00 17 6 Este 24 Este 0 940.2 -0.1 61
2019-06-05 02:00:00 17.4 10 Nordeste 25 Nordeste 0 940.2 0.6 60
2019-06-05 01:00:00 18.4 11 Nordeste 28 Nordeste 0 940.3 1.6 56
2019-06-05 00:00:00 19.4 20 Nordeste 35 Nordeste 0 940.3 1.9 50
2019-06-04 23:00:00 24.8 15 Sudoeste 27 Oeste 0 939.6 1.2 25
2019-06-04 22:00:00 26.7 12 Oeste 33 Oeste 0 938.7 0.2 24
2019-06-04 21:00:00 29.6 18 Oeste 39 Sudoeste 0 938.4 -0.7 19
2019-06-04 20:00:00 30.6 18 Sudoeste 42 Sudoeste 0 938.4 -1.4 18
2019-06-04 19:00:00 30.9 23 Sudoeste 42 Sudoeste 0 938.5 -2 17
2019-06-04 18:00:00 30.7 13 Sudoeste 35 Sudoeste 0 939.1 -2 16
2019-06-04 17:00:00 31.8 19 Sudoeste 34 Sur 0 939.8 -2.1 14
2019-06-04 16:00:00 31 18 Sudoeste 40 Sur 0 940.5 -1.9 14
2019-06-04 15:00:00 31.4 16 Sudoeste 48 Sudoeste 0 941.1 -1.9 16
2019-06-04 14:00:00 30.8 23 Sudoeste 44 Oeste 0 941.9 -1.8 15
2019-06-04 13:00:00 30.1 26 Sudoeste -- -- 0 942.4 -1.9 14
2019-06-04 12:00:00 27.8 6 Oeste 14 Oeste 0 943 -1.4 24
2019-06-04 11:00:00 24.7 3 Norte 9 Nordeste 0 943.7 -0.7 29
2019-06-04 10:00:00 20.9 3 Norte 7 Oeste 0 944.3 0 37
2019-06-04 09:00:00 16.4 3 Oeste 6 Norte 0 944.4 0.3 47
2019-06-04 08:00:00 15.2 2 Nordeste 4 Oeste 0 944.4 0.2 50
2019-06-04 07:00:00 14.3 3 Oeste 6 Sudoeste 0 944.3 -0.2 49
2019-06-04 06:00:00 14.9 2 Noroeste 9 Oeste 0 944.1 -0.5 46
2019-06-04 05:00:00 16.3 3 Noroeste 8 Noroeste 0 944.2 -1 40
2019-06-04 04:00:00 17.7 3 Noroeste 6 Noroeste 0 944.5 -0.8 38
2019-06-04 03:00:00 19.2 2 Este 9 Norte 0 944.6 -0.6 31
2019-06-04 02:00:00 20.3 4 Este 12 Sudeste 0 945.2 0.3 28
2019-06-04 01:00:00 21.8 5 Este 16 Sur 0 945.3 0.9 25
2019-06-04 00:00:00 23.1 7 Nordeste 13 Sur 0 945.2 0.8 24
2019-06-03 23:00:00 26.3 4 Sudeste 20 Sudoeste 0 944.9 0.6 16
2019-06-03 22:00:00 28.3 12 Sudoeste 21 Sudoeste 0 944.4 -0.2 13
2019-06-03 21:00:00 31.4 15 Oeste 35 Sudoeste 0 944.4 -0.6 11
2019-06-03 20:00:00 33.1 17 Oeste 39 Oeste 0 944.3 -1.3 11
2019-06-03 19:00:00 32.3 21 Oeste 45 Oeste 0 944.6 -1.4 12
2019-06-03 18:00:00 32.8 17 Sudoeste 35 Sudoeste 0 945 -1.8 13
2019-06-03 17:00:00 33.7 12 Sudoeste 47 Sudoeste 0 945.6 -2.2 14
2019-06-03 16:00:00 33.2 23 Sudoeste 45 Oeste 0 946 -2.5 13
2019-06-03 15:00:00 32.7 6 Nordeste 14 Oeste 0 946.8 -2.2 17
2019-06-03 14:00:00 30.9 5 Este 16 Nordeste 0 947.8 -1.3 22
2019-06-03 13:00:00 29 5 Noroeste 14 Oeste 0 948.5 -0.9 24
2019-06-03 12:00:00 26.6 6 Noroeste 10 Noroeste 0 949 -0.4 27
2019-06-03 11:00:00 24.2 3 Oeste 8 Oeste 0 949.1 0 34
2019-06-03 10:00:00 22 3 Oeste 8 Sudoeste 0 949.4 0.4 40
2019-06-03 09:00:00 19.3 4 Sur 8 Sur 0 949.4 0.7 47
2019-06-03 08:00:00 17.5 5 Noroeste 8 Sudoeste 0 949.1 0.3 51
2019-06-03 07:00:00 17.6 3 Sudoeste 7 Este 0 949 0.2 50
2019-06-03 06:00:00 18 2 Sudoeste 13 Sur 0 948.7 0.2 46
2019-06-03 05:00:00 18.8 5 Sudoeste 8 Sudoeste 0 948.8 0 44
2019-06-03 04:00:00 20.4 4 Sur 14 Sur 0 948.8 -0.3 37
2019-06-03 03:00:00 21.8 8 Sur 21 Sudeste 0 948.5 -0.3 34
2019-06-03 02:00:00 23.4 6 Sudeste 20 Sudeste 0 948.8 1.1 30
2019-06-03 01:00:00 25 6 Este 22 Nordeste 0 949.1 1.9 30
2019-06-03 00:00:00 26.4 16 Este 26 Nordeste 0 948.8 2 25
2019-06-02 23:00:00 27.5 12 Nordeste 19 Nordeste 0 947.7 1.2 24
2019-06-02 22:00:00 28.7 4 Nordeste 13 Sudeste 0 947.2 0.5 23
2019-06-02 21:00:00 30.5 5 Este 12 Nordeste 0 946.8 -0.3 18
2019-06-02 20:00:00 33 4 Sudeste 18 Nordeste 0 946.5 -0.9 14
2019-06-02 19:00:00 34.6 8 Este 33 Nordeste 0 946.7 -1.5 12
2019-06-02 18:00:00 34.8 6 Norte 19 Nordeste 0 947.1 -1.8 12
2019-06-02 17:00:00 34.3 12 Este 21 Nordeste 0 947.4 -2.5 12
2019-06-02 16:00:00 33.7 6 Nordeste 18 Oeste 0 948.2 -2.4 13
2019-06-02 15:00:00 32.8 7 Oeste 21 Oeste 0 948.9 -2.2 16
2019-06-02 14:00:00 31.3 8 Oeste 19 Oeste 0 949.9 -1.7 18
2019-06-02 13:00:00 29 9 Oeste 15 Oeste 0 950.6 -1.3 23
2019-06-02 12:00:00 25.9 4 Norte 9 Oeste 0 951.1 -0.8 27
2019-06-02 11:00:00 22.7 4 Sudoeste 8 Oeste 0 951.6 -0.3 34
2019-06-02 10:00:00 20.1 2 Sudeste 6 Norte 0 951.9 0.1 41
2019-06-02 09:00:00 16.9 3 Nordeste 5 Norte 0 951.9 0.5 51
2019-06-02 08:00:00 14.4 0 Calma 4 Oeste 0 951.9 0.5 60
2019-06-02 07:00:00 13.3 0 Calma 5 Este 0 951.8 0.3 65
2019-06-02 06:00:00 14.1 0 Calma 4 Oeste 0 951.4 -0.2 61
2019-06-02 05:00:00 14.8 2 Noroeste 4 Oeste 0 951.4 -0.2 59
2019-06-02 04:00:00 16.1 2 Sudoeste 5 Oeste 0 951.5 0 54
2019-06-02 03:00:00 17.4 3 Oeste 11 Oeste 0 951.6 0.3 48
2019-06-02 02:00:00 18.8 4 Noroeste 9 Nordeste 0 951.6 0.9 44
2019-06-02 01:00:00 21.2 5 Nordeste 8 Norte 0 951.5 1.5 35
2019-06-02 00:00:00 23 3 Norte 14 Sudeste 0 951.3 1.5 29
2019-06-01 23:00:00 25.5 6 Sur 10 Sudeste 0 950.7 1.2 24
2019-06-01 22:00:00 26.7 7 Este 19 Este 0 950 0.5 24
2019-06-01 21:00:00 30.3 13 Este 26 Nordeste 0 949.8 -0.1 19
2019-06-01 20:00:00 31 18 Nordeste 29 Nordeste 0 949.5 -0.9 18
2019-06-01 19:00:00 31.6 12 Nordeste 26 Norte 0 949.5 -1.5 18
2019-06-01 18:00:00 32.3 15 Nordeste 30 Nordeste 0 949.9 -1.8 17
2019-06-01 17:00:00 32.6 10 Norte 21 Nordeste 0 950.4 -2 13
2019-06-01 16:00:00 31.8 8 Nordeste 22 Nordeste 0 951 -2.1 15
2019-06-01 15:00:00 30.8 6 Norte 19 Nordeste 0 951.7 -2 18
2019-06-01 14:00:00 29.4 8 Norte 19 Nordeste 0 952.4 -1.9 21
2019-06-01 13:00:00 27.2 6 Norte 14 Nordeste 0 953.1 -1.5 27
2019-06-01 12:00:00 24 5 Nordeste 11 Nordeste 0 953.7 -0.9 34
2019-06-01 11:00:00 20.8 5 Noroeste 11 Norte 0 954.3 -0.3 43
2019-06-01 10:00:00 18.2 3 Norte 7 Nordeste 0 954.6 0.3 49
2019-06-01 09:00:00 14.5 2 Oeste 4 Noroeste 0 954.6 0.6 58
2019-06-01 08:00:00 12.1 0 Calma 4 Oeste 0 954.6 0.6 62
2019-06-01 07:00:00 11 4 Nordeste 5 Nordeste 0 954.3 0.2 66
2019-06-01 06:00:00 11.4 3 Oeste 4 Oeste 0 954 0 64
2019-06-01 05:00:00 12.3 2 Sudeste 8 Nordeste 0 954 0.1 59
2019-06-01 04:00:00 13.1 3 Noroeste 7 Nordeste 0 954.1 0 56
2019-06-01 03:00:00 14.3 3 Sur 8 Sudoeste 0 954 0.1 50
2019-06-01 02:00:00 15.8 2 Noroeste 9 Nordeste 0 953.9 0.4 44
2019-06-01 01:00:00 16.8 8 Nordeste 18 Sur 0 954.1 1.1 40
2019-06-01 00:00:00 18.4 5 Sudoeste 7 Sudoeste 0 953.9 1.2 36
2019-05-31 23:00:00 21.9 3 Norte 12 Este 0 953.5 0.9 26
2019-05-31 22:00:00 24.1 9 Nordeste 18 Nordeste 0 953 0.3 23
2019-05-31 21:00:00 27.3 13 Nordeste 26 Nordeste 0 952.7 -0.1 18
2019-05-31 20:00:00 28 20 Nordeste 30 Nordeste 0 952.6 -0.7 17
2019-05-31 19:00:00 28.7 19 Nordeste 31 Norte 0 952.7 -1 19
2019-05-31 18:00:00 29.1 19 Nordeste -- -- 0 952.8 -1.3 17
2019-05-31 17:00:00 29.2 17 Nordeste 31 Norte 0 953.3 -1.3 21
2019-05-31 16:00:00 28.9 13 Nordeste 29 Nordeste 0 953.7 -1.5 17
2019-05-31 15:00:00 28.5 11 Nordeste 24 Nordeste 0 954.1 -1.5 20
2019-05-31 14:00:00 27.1 10 Norte 19 Nordeste 0 954.6 -1.5 25
2019-05-31 13:00:00 25.7 5 Nordeste 13 Nordeste 0 955.2 -1.4 26
2019-05-31 12:00:00 22.3 4 Oeste 10 Noroeste 0 955.6 -1 32
2019-05-31 11:00:00 19.8 4 Sudoeste 9 Sudoeste 0 956.1 -0.5 38
2019-05-31 10:00:00 16.2 3 Oeste 10 Nordeste 0 956.6 0.3 50
2019-05-31 09:00:00 13.5 3 Nordeste 7 Este 0 956.6 0.4 58
2019-05-31 08:00:00 10.9 0 Calma 4 Norte 0 956.6 0.6 63
2019-05-31 07:00:00 9.5 2 Nordeste 5 Sur 0 956.3 0.4 69
2019-05-31 06:00:00 10.3 4 Sur 5 Sur 0 956.2 0.1 68
2019-05-31 05:00:00 11.3 3 Sudoeste 7 Sudeste 0 956 -0.1 64
2019-05-31 04:00:00 12.3 2 Sur 12 Sudeste 0 955.9 -0.3 58
2019-05-31 03:00:00 13.9 4 Sudeste 12 Sur 0 956.1 0 53
2019-05-31 02:00:00 14.9 6 Sudeste 14 Sur 0 956.1 0.3 48
2019-05-31 01:00:00 15.2 4 Oeste 12 Sudeste 0 956.2 1.2 46
2019-05-31 00:00:00 17.5 5 Sudoeste 9 Sudoeste 0 956.1 1.3 34
2019-05-30 23:00:00 20.1 6 Sudoeste 10 Sudeste 0 955.8 1.6 29
2019-05-30 22:00:00 23.8 3 Este 21 Nordeste 0 955 0.7 19
2019-05-30 21:00:00 26.5 13 Norte 27 Nordeste 0 954.8 0.3 14
2019-05-30 20:00:00 27.1 20 Nordeste 33 Norte 0 954.2 -0.8 15
2019-05-30 19:00:00 27.5 20 Nordeste 39 Nordeste 0 954.3 -0.8 17
2019-05-30 18:00:00 27.3 23 Nordeste 40 Nordeste 0 954.5 -1.1 17
2019-05-30 17:00:00 27.3 19 Nordeste 38 Nordeste 0 955 -1.3 18
2019-05-30 16:00:00 27 21 Nordeste 34 Nordeste 0 955.1 -1.6 22
2019-05-30 15:00:00 26.2 12 Nordeste 26 Norte 0 955.6 -1.8 25
2019-05-30 14:00:00 24.1 10 Nordeste 21 Nordeste 0 956.3 -1.4 30
2019-05-30 13:00:00 22.7 5 Noroeste 12 Sudoeste 0 956.7 -1.2 31
2019-05-30 12:00:00 19.7 6 Sudeste 12 Sudeste 0 957.4 -0.3 37
2019-05-30 11:00:00 17.5 6 Oeste 12 Oeste 0 957.7 0.4 46
2019-05-30 10:00:00 14.9 2 Noroeste 6 Norte 0 957.9 1 51
2019-05-30 09:00:00 12.1 4 Nordeste 9 Norte 0 957.7 1 63
2019-05-30 08:00:00 9.8 0 Calma 4 Nordeste 0 957.3 0.6 70
2019-05-30 07:00:00 8.2 2 Norte 5 Este 0 956.9 0.2 75
2019-05-30 06:00:00 8.9 2 Norte 5 Este 0 956.7 -0.1 74
2019-05-30 05:00:00 9.4 2 Norte 9 Norte 0 956.7 -0.3 72
2019-05-30 04:00:00 10.3 3 Este 14 Sudeste 0 956.7 -0.1 68
2019-05-30 03:00:00 12.3 6 Sur 13 Sudeste 0 956.8 0.3 60
2019-05-30 02:00:00 12.6 7 Sur 15 Sur 0 957 0.9 59
2019-05-30 01:00:00 13 5 Noroeste 10 Sur 0 956.8 1.6 58
2019-05-30 00:00:00 14.5 8 Sur 12 Sur 0 956.5 1.7 51
2019-05-29 23:00:00 15.6 8 Sur 17 Nordeste 0 956.1 1.7 47
2019-05-29 22:00:00 17.2 14 Nordeste 26 Nordeste 0 955.2 1.1 41
2019-05-29 21:00:00 19.2 17 Nordeste 37 Nordeste 0 954.8 0.8 36
2019-05-29 20:00:00 19.9 23 Nordeste 36 Nordeste 0 954.4 0.2 36
2019-05-29 19:00:00 20.4 23 Nordeste 39 Nordeste 0 954.1 -0.2 35
2019-05-29 18:00:00 20.6 28 Nordeste 43 Nordeste 0 954 -0.6 33
2019-05-29 17:00:00 21 21 Nordeste 36 Nordeste 0 954.2 -0.6 33
2019-05-29 16:00:00 21.2 19 Nordeste 30 Nordeste 0 954.3 -0.7 31
2019-05-29 15:00:00 20.2 16 Nordeste 36 Nordeste 0 954.6 -0.6 32
2019-05-29 14:00:00 20.5 15 Nordeste 36 Nordeste 0 954.8 -0.8 33
2019-05-29 13:00:00 18.5 18 Nordeste 37 Nordeste 0 955 -0.6 35
2019-05-29 12:00:00 17.7 22 Nordeste 36 Nordeste 0 955.2 -0.2 40
2019-05-29 11:00:00 15.5 5 Oeste 20 Nordeste 0 955.6 0.5 47
2019-05-29 10:00:00 14.9 5 Oeste 13 Oeste 0 955.6 1 48
2019-05-29 09:00:00 11.6 2 Sudoeste 9 Sur 0 955.4 0.9 57
2019-05-29 08:00:00 8.6 5 Nordeste 12 Sur 0 955.1 0.6 66
2019-05-29 07:00:00 7.1 7 Sudoeste 10 Sudoeste 0 954.6 -0.1 70
2019-05-29 06:00:00 7.5 6 Sur 8 Sudeste 0 954.5 0 66
2019-05-29 05:00:00 8 0 Calma 9 Sudoeste 0 954.5 0 65
2019-05-29 04:00:00 8.9 3 Sur 9 Sudoeste 0 954.7 0.5 60
2019-05-29 03:00:00 9.1 3 Sur 11 Sur 0 954.5 0.6 61
2019-05-29 02:00:00 9.5 6 Sudoeste 18 Norte 0 954.5 1 60
2019-05-29 01:00:00 11.9 11 Nordeste 17 Norte 0 954.2 1.5 47
2019-05-29 00:00:00 12.6 11 Norte 23 Norte 0 953.9 2.1 45
2019-05-28 23:00:00 12.9 14 Nordeste 26 Nordeste 0 953.5 2.6 51
2019-05-28 22:00:00 14.3 14 Nordeste 26 Nordeste 0 952.7 2.3 43
2019-05-28 21:00:00 16.7 14 Nordeste 31 Nordeste 0 951.8 1.8 36
2019-05-28 20:00:00 17.7 21 Nordeste 36 Nordeste 0 950.9 1.2 33
2019-05-28 19:00:00 18.6 24 Nordeste 39 Nordeste 0 950.4 0.9 33
2019-05-28 18:00:00 19.3 27 Nordeste 48 Nordeste 0 950 0.5 32
2019-05-28 17:00:00 21.1 15 Norte 44 Norte 0 949.7 -0.2 29
2019-05-28 16:00:00 18.8 17 Nordeste 35 Nordeste 0 949.5 -0.7 35
2019-05-28 15:00:00 20.4 8 Este 18 Nordeste 0 949.5 -0.9 30
2019-05-28 14:00:00 19.2 4 Este 21 Nordeste 0 949.9 -0.3 34
2019-05-28 13:00:00 17.2 9 Norte 17 Nordeste 0 950.2 0.1 37
2019-05-28 12:00:00 15.7 4 Sudeste 18 Sur 0 950.4 0.5 45
2019-05-28 11:00:00 14.7 8 Sur 15 Sur 0 950.2 0.9 49
2019-05-28 10:00:00 12.8 7 Este 13 Este 0 950.1 1.3 57
2019-05-28 09:00:00 10.7 4 Oeste 10 Oeste 0 949.9 1.6 65
2019-05-28 08:00:00 9.3 5 Oeste 8 Oeste 0 949.3 1 80
2019-05-28 07:00:00 9 3 Noroeste 7 Sudeste 0 948.8 0.4 78
2019-05-28 06:00:00 8.7 6 Sudoeste 8 Oeste 0 948.3 -0.1 80
2019-05-28 05:00:00 10.1 3 Noroeste 5 Oeste 0 948.3 -0.3 73
2019-05-28 04:00:00 10.3 2 Este 11 Este 0 948.4 -0.2 67
2019-05-28 03:00:00 11.2 3 Sudeste 15 Este 0 948.4 -0.2 66
2019-05-28 02:00:00 12.1 11 Nordeste 27 Nordeste 0 948.6 0.6 65
2019-05-28 01:00:00 13 18 Nordeste 37 Nordeste 0 948.6 1.4 62
2019-05-28 00:00:00 14.5 17 Nordeste 37 Nordeste 0 948.6 2.4 56
2019-05-27 23:00:00 15.7 21 Nordeste 35 Nordeste 0 948 2.4 58
2019-05-27 22:00:00 17.4 14 Nordeste 33 Nordeste 0 947.2 1.8 57
2019-05-27 21:00:00 18.9 20 Nordeste 34 Nordeste 0 946.2 1 50
2019-05-27 20:00:00 20.5 17 Nordeste 39 Nordeste 0 945.6 0.7 44
2019-05-27 19:00:00 21.3 17 Nordeste 35 Nordeste 0 945.4 0.2 42
2019-05-27 18:00:00 21.6 21 Nordeste 41 Nordeste 0 945.2 -0.5 43
2019-05-27 17:00:00 23.3 25 Nordeste 42 Nordeste 0 944.9 -1.3 36
2019-05-27 16:00:00 24.1 21 Nordeste 39 Nordeste 0 945.2 -1.4 33
2019-05-27 15:00:00 24.5 13 Nordeste 27 Este 0 945.7 -1.5 32
2019-05-27 14:00:00 23.3 13 Este 26 Este 0 946.2 -1.6 35
2019-05-27 13:00:00 21.6 10 Nordeste 15 Nordeste 0 946.6 -1.5 37
2019-05-27 12:00:00 19 5 Norte 12 Nordeste 0 947.2 -1.1 48
2019-05-27 11:00:00 15.9 6 Oeste 14 Oeste 0 947.8 -0.4 57
2019-05-27 10:00:00 13.4 4 Noroeste 10 Norte 0 948.1 0.1 67
2019-05-27 09:00:00 11.5 2 Noroeste 6 Este 0 948.3 0.2 73
2019-05-27 08:00:00 9 2 Nordeste 6 Sudoeste 0 948.2 -0.1 81
2019-05-27 07:00:00 7.8 3 Norte 5 Nordeste 0 948 -0.8 85
2019-05-27 06:00:00 8.2 2 Sudeste 5 Sur 0 948.1 -1 83
2019-05-27 05:00:00 8.9 2 Noroeste 5 Nordeste 0 948.3 -1.1 81
2019-05-27 04:00:00 9.5 0 Calma 7 Nordeste 0 948.8 -0.9 79
2019-05-27 03:00:00 10.4 3 Nordeste 13 Sur 0 949.1 -0.8 75
2019-05-27 02:00:00 11.3 3 Nordeste 10 Sur 0 949.4 -0.6 71
2019-05-27 01:00:00 12 7 Sur 10 Sur 0 949.7 0.3 69
2019-05-27 00:00:00 13.9 8 Este 12 Nordeste 0 949.9 0.8 61
2019-05-26 23:00:00 14.7 5 Nordeste 22 Nordeste 0 950 1 59
2019-05-26 22:00:00 15.6 14 Nordeste 27 Nordeste 0 949.4 0.2 54
2019-05-26 21:00:00 17.9 21 Nordeste 43 Nordeste 0 949.1 0 47
2019-05-26 20:00:00 19.1 25 Nordeste 42 Este 0 949 -0.5 42
2019-05-26 19:00:00 20.5 23 Nordeste 39 Nordeste 0 949.2 -0.9 38
2019-05-26 18:00:00 21.2 21 Nordeste 37 Nordeste 0 949.1 -1.4 33
2019-05-26 17:00:00 21.5 17 Este 35 Este 0 949.5 -1.5 36
2019-05-26 16:00:00 21.4 13 Nordeste 30 Este 0 950.1 -1.2 35
2019-05-26 15:00:00 20.5 8 Nordeste 25 Sudeste 0 950.5 -1.1 37
2019-05-26 14:00:00 18.6 5 Noroeste 15 Oeste 0 951 -1 41
2019-05-26 13:00:00 19.2 7 Noroeste 15 Nordeste 0 951.3 -0.9 39
2019-05-26 12:00:00 17.6 4 Oeste 14 Oeste 0 951.6 -0.9 44
2019-05-26 11:00:00 14.9 6 Sudoeste 13 Sudoeste 0 952 -0.7 50
2019-05-26 10:00:00 13.1 6 Oeste 12 Sudoeste 0 952.2 -0.4 56
2019-05-26 09:00:00 10.7 4 Sur 8 Sur 0 952.5 0.1 66
2019-05-26 08:00:00 8.8 3 Noroeste 7 Sudeste 0 952.7 0.2 76
2019-05-26 07:00:00 7.9 4 Sudeste 9 Oeste 0 952.6 0 79
2019-05-26 06:00:00 8.5 4 Noroeste 9 Oeste 0 952.4 -0.4 79
2019-05-26 05:00:00 10.2 4 Sudoeste 9 Sur 0 952.5 -0.5 74
2019-05-26 04:00:00 10.6 3 Nordeste 8 Nordeste 0 952.6 -0.4 67
2019-05-26 03:00:00 11.4 4 Este 9 Oeste 0 952.8 -0.2 73
2019-05-26 02:00:00 10.9 5 Oeste 14 Oeste 0 953 0.2 74
2019-05-26 01:00:00 12 13 Nordeste 26 Nordeste 0 953 0.8 64
2019-05-26 00:00:00 12.6 15 Nordeste 27 Nordeste 0 953 1.5 66
2019-05-25 23:00:00 13.4 15 Nordeste 23 Este 0 952.8 1.8 64
2019-05-25 22:00:00 14.7 8 Nordeste 27 Nordeste 0 952.2 1.6 58
2019-05-25 21:00:00 16.8 19 Nordeste 33 Nordeste 0 951.5 0.9 51
2019-05-25 20:00:00 18.4 19 Norte 42 Nordeste 0 951 0.4 44
2019-05-25 19:00:00 18.7 20 Nordeste 39 Nordeste 0 950.6 -0.1 43
2019-05-25 18:00:00 19.9 25 Nordeste 37 Nordeste 0 950.6 -0.3 40
2019-05-25 17:00:00 20.4 22 Nordeste 36 Nordeste 0 950.6 -0.5 37
2019-05-25 16:00:00 19.8 22 Nordeste 40 Nordeste 0 950.7 -0.6 40
2019-05-25 15:00:00 20.2 26 Nordeste 40 Nordeste 0 950.9 -0.4 38
2019-05-25 14:00:00 19 21 Nordeste 38 Nordeste 0 951.1 -0.5 42
2019-05-25 13:00:00 19.2 19 Nordeste 34 Nordeste 0 951.3 -0.3 42
2019-05-25 12:00:00 18 16 Nordeste 30 Nordeste 0 951.3 -0.2 44
2019-05-25 11:00:00 15.4 6 Sur 12 Sur 0 951.6 0.8 54
2019-05-25 10:00:00 13.7 4 Sudoeste 10 Sudoeste 0 951.6 1.2 62
2019-05-25 09:00:00 11.7 0 Calma 6 Oeste 0 951.5 1.4 69
2019-05-25 08:00:00 11.2 3 Sudoeste 9 Sudoeste 0 950.8 0.6 73
2019-05-25 07:00:00 10.9 5 Sudoeste 10 Sur 0 950.4 0.2 72
2019-05-25 06:00:00 10.9 5 Sur 9 Sudoeste 0 950.1 -0.1 72
2019-05-25 05:00:00 11.2 4 Oeste 11 Sur 0 950.2 -0.2 71
2019-05-25 04:00:00 11.6 5 Sudoeste 11 Sudoeste 0 950.2 -0.2 72
2019-05-25 03:00:00 12.5 3 Sudoeste 17 Nordeste 0 950.2 -0.1 66
2019-05-25 02:00:00 12.4 5 Sudeste 10 Sur 0 950.4 0.3 69
2019-05-25 01:00:00 12.7 6 Sur 11 Sur 0 950.4 1.2 67
2019-05-25 00:00:00 12.7 7 Sudoeste 11 Sur 0 950.3 1.4 70
2019-05-24 23:00:00 13.2 3 Sudoeste 26 Nordeste 0 950.1 1.8 65
2019-05-24 22:00:00 13.7 19 Nordeste 33 Nordeste 0 949.2 0.8 61
2019-05-24 21:00:00 16 18 Nordeste 37 Nordeste 0 948.9 0.5 53
2019-05-24 20:00:00 17 23 Nordeste 36 Nordeste 0 948.3 -0.2 50
2019-05-24 19:00:00 16.5 19 Nordeste 33 Nordeste 0 948.4 -0.5 53
2019-05-24 18:00:00 16.5 18 Nordeste 31 Nordeste 0 948.4 -0.6 54
2019-05-24 17:00:00 16.5 17 Nordeste 27 Nordeste 0 948.5 -0.7 53
2019-05-24 16:00:00 16.3 14 Nordeste 33 Nordeste 0 948.9 -0.3 55
2019-05-24 15:00:00 15.6 17 Nordeste 31 Nordeste 0 949 -0.5 57
2019-05-24 14:00:00 15.6 20 Nordeste 37 Nordeste 0 949.2 -0.4 60
2019-05-24 13:00:00 15.9 19 Nordeste 38 Nordeste 0 949.2 -0.8 63
2019-05-24 12:00:00 14.5 11 Nordeste 24 Norte 0 949.5 0.7 71
2019-05-24 11:00:00 12.2 2 Este 20 Nordeste 1.4 949.6 1.3 86
2019-05-24 10:00:00 11.8 10 Nordeste 29 Nordeste 0.8 950 1.7 84
2019-05-24 09:00:00 12.8 21 Nordeste 28 Nordeste 0 948.8 0.8 73
2019-05-24 08:00:00 13 18 Nordeste 32 Nordeste 0 948.3 0.4 72
2019-05-24 07:00:00 13.1 16 Nordeste 27 Nordeste 0 948.3 0.6 73
2019-05-24 06:00:00 13.3 11 Nordeste 29 Este 0 948 0.2 74
2019-05-24 05:00:00 13.4 16 Nordeste 28 Nordeste 0 947.9 -0.5 77
2019-05-24 04:00:00 14.1 17 Nordeste 34 Nordeste 0 947.7 -0.3 76
2019-05-24 03:00:00 14.4 13 Este 27 Este 0.2 947.8 -0.6 73
2019-05-24 02:00:00 15.6 13 Nordeste 28 Este 0 948.4 0.9 70
2019-05-24 01:00:00 16.3 17 Nordeste 30 Nordeste 0 948 0.3 75
2019-05-24 00:00:00 16.7 7 Nordeste 16 Nordeste 0 948.4 1 72
2019-05-23 23:00:00 16.9 17 Nordeste -- -- 0.4 947.5 0 70
2019-05-23 22:00:00 17.9 -- -- -- -- 0 947.7 1.1 68
2019-05-23 21:00:00 18.4 14 Este 29 Nordeste 0.4 947.4 0.6 67
2019-05-23 20:00:00 22.6 19 Nordeste 36 Nordeste 0 947.5 0.5 41
2019-05-23 19:00:00 25.9 10 Este 39 Nordeste 0 946.6 -0.7 30
2019-05-23 18:00:00 25.4 17 Nordeste 28 Nordeste 0 946.8 -1.2 31
2019-05-23 17:00:00 26.2 6 Noroeste 11 Noroeste 0 947 -1.7 26
2019-05-23 16:00:00 26.7 4 Noroeste 13 Nordeste 0 947.3 -2 28
2019-05-23 15:00:00 25.7 5 Norte 13 Nordeste 0 948 -2 30
2019-05-23 14:00:00 24.9 3 Norte 13 Norte 0 948.7 -1.6 32
2019-05-23 13:00:00 22.7 5 Norte 12 Norte 0 949.3 -1.2 42
2019-05-23 12:00:00 19.3 5 Norte 9 Nordeste 0 950 -0.3 49
2019-05-23 11:00:00 16.3 2 Noroeste 6 Oeste 0 950.3 0 55
2019-05-23 10:00:00 13.2 4 Sudoeste 7 Sudoeste 0 950.5 0.5 70
2019-05-23 09:00:00 12.4 3 Norte 6 Sur 0 950.3 0.3 72
2019-05-23 08:00:00 10.9 3 Sudoeste 5 Sur 0 950.3 0.4 76
2019-05-23 07:00:00 10.3 2 Norte 5 Este 0 950 0.1 78
2019-05-23 06:00:00 10.8 0 Calma 3 Oeste 0 950 -0.2 75
2019-05-23 05:00:00 11.3 0 Calma 5 Sudoeste 0 949.9 -0.5 72
2019-05-23 04:00:00 12.3 3 Norte 4 Norte 0 949.9 -0.3 68
2019-05-23 03:00:00 13.4 2 Sur 5 Este 0 950.2 0 62
2019-05-23 02:00:00 14.8 3 Este 5 Sur 0 950.4 0.6 57
2019-05-23 01:00:00 15.6 2 Sudoeste 14 Sur 0 950.2 1.2 55
2019-05-23 00:00:00 16.8 5 Sudoeste 8 Sudeste 0 950.2 1.7 48
2019-05-22 23:00:00 18.8 4 Sudoeste 19 Nordeste 0 949.8 1.9 42
2019-05-22 22:00:00 20.2 12 Nordeste 25 Nordeste 0 949 1.4 35
2019-05-22 21:00:00 22.3 18 Nordeste 33 Nordeste 0 948.5 0.6 31
2019-05-22 20:00:00 23.7 22 Nordeste 36 Nordeste 0 947.9 -0.3 30
2019-05-22 19:00:00 24.7 21 Nordeste 33 Nordeste 0 947.6 -0.9 29
2019-05-22 18:00:00 25.4 19 Nordeste 28 Nordeste 0 947.9 -1.3 29
2019-05-22 17:00:00 25.7 14 Nordeste 30 Nordeste 0 948.2 -1.5 28
2019-05-22 16:00:00 25.3 15 Nordeste 27 Norte 0 948.5 -1.9 27
2019-05-22 15:00:00 24.7 6 Norte 14 Noroeste 0 949.2 -1.4 26
2019-05-22 14:00:00 23.6 6 Nordeste 15 Nordeste 0 949.7 -1.1 29
2019-05-22 13:00:00 21.4 5 Noroeste 15 Nordeste 0 950.4 -0.6 32
2019-05-22 12:00:00 18.9 4 Norte 9 Nordeste 0 950.6 -0.6 38
2019-05-22 11:00:00 16 4 Oeste 7 Oeste 0 950.8 -0.2 49
2019-05-22 10:00:00 13 4 Oeste 6 Oeste 0 951 0.4 61
2019-05-22 09:00:00 10.4 3 Oeste 8 Nordeste 0 951.2 0.8 71
2019-05-22 08:00:00 8.8 5 Nordeste 8 Nordeste 0 951 0.7 75
2019-05-22 07:00:00 7.4 3 Sudeste 7 Sur 0 950.6 0.3 78
2019-05-22 06:00:00 8.1 3 Sur 8 Sur 0 950.4 0.2 75
2019-05-22 05:00:00 8.8 3 Sur 6 Sudeste 0 950.3 0.2 73
2019-05-22 04:00:00 10.1 2 Este 8 Sur 0 950.3 0.2 67
2019-05-22 03:00:00 10.8 2 Oeste 11 Sudeste 0 950.2 0.2 64
2019-05-22 02:00:00 11.2 5 Sur 9 Sur 0 950.1 0.6 64
2019-05-22 01:00:00 13.5 3 Sudoeste 9 Sudeste 0 950.1 1.6 52
2019-05-22 00:00:00 15.1 4 Sudeste 25 Nordeste 0 950 2.1 45